createdAt,value
2018-03-28T00:02:00.963Z,76.60
2018-03-28T00:04:28.483Z,76.50
2018-03-28T00:06:55.980Z,76.30
2018-03-28T00:09:23.471Z,76.30
2018-03-28T00:11:51.731Z,76.90
2018-03-28T00:14:19.252Z,76.80
2018-03-28T00:16:46.754Z,77.70
2018-03-28T00:19:15.030Z,76.60
2018-03-28T00:21:43.342Z,76.50
2018-03-28T00:24:10.847Z,76.40
2018-03-28T00:26:38.393Z,76.40
2018-03-28T00:29:05.859Z,76.30
2018-03-28T00:31:33.378Z,76.30
2018-03-28T00:34:00.867Z,76.40
2018-03-28T00:36:28.397Z,76.40
2018-03-28T00:38:55.924Z,76.30
2018-03-28T00:41:24.187Z,76.20
2018-03-28T00:43:51.680Z,76.10
2018-03-28T00:46:19.178Z,76.10
2018-03-28T00:48:46.695Z,76.30
2018-03-28T00:51:26.732Z,76.50
2018-03-28T00:53:55.010Z,76.60
2018-03-28T00:56:22.555Z,76.60
2018-03-28T00:58:50.052Z,76.90
2018-03-28T01:01:17.559Z,77.10
2018-03-28T01:03:45.064Z,77.00
2018-03-28T01:06:12.567Z,76.80
2018-03-28T01:08:40.060Z,76.70
2018-03-28T01:11:08.326Z,76.90
2018-03-28T01:13:36.612Z,76.80
2018-03-28T01:16:04.867Z,76.70
2018-03-28T01:18:32.379Z,76.70
2018-03-28T01:20:59.894Z,76.60
2018-03-28T01:23:28.163Z,76.50
2018-03-28T01:25:57.175Z,76.60
2018-03-28T01:28:25.451Z,76.70
2018-03-28T01:30:53.722Z,76.70
2018-03-28T01:33:21.994Z,76.50
2018-03-28T01:35:50.256Z,76.50
2018-03-28T01:38:17.750Z,76.40
2018-03-28T01:40:45.295Z,76.50
2018-03-28T01:43:13.559Z,77.10
2018-03-28T01:45:41.839Z,78.20
2018-03-28T01:48:09.366Z,77.40
2018-03-28T01:50:36.866Z,78.00
2018-03-28T01:53:05.134Z,78.70
2018-03-28T01:55:33.416Z,78.70
2018-03-28T01:58:01.671Z,78.60
2018-03-28T02:00:29.167Z,78.60
2018-03-28T02:02:56.663Z,78.50
2018-03-28T02:05:24.162Z,78.40
2018-03-28T02:07:52.431Z,78.40
2018-03-28T02:10:20.698Z,78.30
2018-03-28T02:12:48.188Z,78.20
2018-03-28T02:15:16.455Z,77.90
2018-03-28T02:17:44.723Z,77.90
2018-03-28T02:20:13.003Z,77.80
2018-03-28T02:22:41.271Z,77.80
2018-03-28T02:25:08.766Z,77.80
2018-03-28T02:27:36.271Z,77.90
2018-03-28T02:30:04.127Z,77.90
2018-03-28T02:32:31.639Z,77.90
2018-03-28T02:34:59.136Z,77.90
2018-03-28T02:37:26.639Z,77.90
2018-03-28T02:39:54.908Z,77.80
2018-03-28T02:42:23.177Z,77.80
2018-03-28T02:44:50.682Z,77.80
2018-03-28T02:47:18.184Z,77.80
2018-03-28T02:49:45.698Z,77.70
2018-03-28T02:52:13.266Z,77.70
2018-03-28T02:54:40.783Z,77.70
2018-03-28T02:57:09.047Z,77.60
2018-03-28T02:59:37.327Z,77.90
2018-03-28T03:02:04.841Z,77.90
2018-03-28T03:04:32.339Z,78.40
2018-03-28T03:06:59.855Z,78.60
2018-03-28T03:09:27.347Z,79.00
2018-03-28T03:11:54.964Z,79.10
2018-03-28T03:14:22.463Z,79.50
2018-03-28T03:16:51.479Z,79.60
2018-03-28T03:19:19.743Z,79.70
2018-03-28T03:21:47.259Z,79.70
2018-03-28T03:24:14.755Z,79.70
2018-03-28T03:26:42.251Z,79.60
2018-03-28T03:29:09.763Z,79.40
2018-03-28T03:31:37.287Z,79.20
2018-03-28T03:34:04.784Z,79.10
2018-03-28T03:36:32.300Z,79.00
2018-03-28T03:38:59.823Z,78.70
2018-03-28T03:41:28.092Z,78.80
2018-03-28T03:43:55.593Z,78.70
2018-03-28T03:46:23.107Z,78.70
2018-03-28T03:48:50.605Z,78.50
2018-03-28T03:51:18.114Z,79.10
2018-03-28T03:53:45.632Z,78.30
2018-03-28T03:56:13.131Z,78.00
2018-03-28T03:58:40.646Z,79.20
2018-03-28T04:01:08.165Z,78.50
2018-03-28T04:03:36.440Z,78.60
2018-03-28T04:06:04.703Z,78.50
2018-03-28T04:08:32.210Z,78.40
2018-03-28T04:10:59.710Z,78.10
2018-03-28T04:13:27.230Z,78.10
2018-03-28T04:15:54.747Z,78.10
2018-03-28T04:18:22.243Z,78.20
2018-03-28T04:20:49.751Z,78.60
2018-03-28T04:23:17.259Z,77.90
2018-03-28T04:25:44.750Z,78.40
2018-03-28T04:28:12.256Z,78.70
2018-03-28T04:30:40.534Z,78.70
2018-03-28T04:33:08.924Z,78.60
2018-03-28T04:35:36.432Z,78.50
2018-03-28T04:38:03.930Z,78.30
2018-03-28T04:40:31.439Z,78.20
2018-03-28T04:42:58.938Z,78.60
2018-03-28T04:45:27.219Z,79.00
2018-03-28T04:47:55.503Z,79.10
2018-03-28T04:50:23.767Z,79.10
2018-03-28T04:52:52.044Z,79.30
2018-03-28T04:55:20.315Z,79.30
2018-03-28T04:57:48.600Z,79.10
2018-03-28T05:00:16.906Z,79.20
2018-03-28T05:02:44.418Z,79.20
2018-03-28T05:05:11.913Z,79.30
2018-03-28T05:07:39.423Z,79.30
2018-03-28T05:10:07.041Z,79.20
2018-03-28T05:12:34.536Z,79.80
2018-03-28T05:15:02.043Z,80.10
2018-03-28T05:17:29.564Z,80.50
2018-03-28T05:19:57.066Z,81.00
2018-03-28T05:22:24.584Z,81.40
2018-03-28T05:24:52.092Z,81.80
2018-03-28T05:27:19.606Z,81.50
2018-03-28T05:29:47.105Z,81.80
2018-03-28T05:32:14.595Z,81.90
2018-03-28T05:34:42.092Z,82.20
2018-03-28T05:37:10.368Z,82.30
2018-03-28T05:39:38.884Z,82.50
2018-03-28T05:42:06.581Z,82.50
2018-03-28T05:44:34.083Z,82.60
2018-03-28T05:47:02.364Z,82.90
2018-03-28T05:49:29.872Z,82.80
2018-03-28T05:51:57.371Z,82.80
2018-03-28T05:54:25.655Z,82.30
2018-03-28T05:56:53.226Z,82.30
2018-03-28T05:59:20.683Z,82.40
2018-03-28T06:01:48.198Z,82.90
2018-03-28T06:04:15.707Z,83.30
2018-03-28T06:06:43.205Z,83.40
2018-03-28T06:09:10.715Z,83.40
2018-03-28T06:11:38.230Z,83.60
2018-03-28T06:14:05.748Z,83.50
2018-03-28T06:16:33.256Z,83.50
2018-03-28T06:19:00.758Z,83.00
2018-03-28T06:21:28.279Z,83.40
2018-03-28T06:23:56.555Z,83.70
2018-03-28T06:26:24.871Z,83.00
2018-03-28T06:28:52.378Z,82.50
2018-03-28T06:31:20.663Z,82.30
2018-03-28T06:33:48.155Z,82.40
2018-03-28T06:36:15.712Z,82.40
2018-03-28T06:38:43.966Z,83.20
2018-03-28T06:41:12.231Z,83.80
2018-03-28T06:43:39.733Z,83.80
2018-03-28T06:46:07.235Z,84.50
2018-03-28T06:48:34.736Z,84.60
2018-03-28T06:51:02.243Z,84.90
2018-03-28T06:53:29.745Z,85.80
2018-03-28T06:55:58.006Z,87.30
2018-03-28T06:58:26.275Z,87.80
2018-03-28T07:00:53.772Z,87.70
2018-03-28T07:03:21.287Z,87.50
2018-03-28T07:05:48.788Z,87.60
2018-03-28T07:08:16.295Z,88.10
2018-03-28T07:10:43.814Z,88.60
2018-03-28T07:13:11.351Z,89.20
2018-03-28T07:15:38.928Z,88.20
2018-03-28T07:18:06.479Z,88.20
2018-03-28T07:20:34.203Z,88.50
2018-03-28T07:23:01.807Z,88.10
2018-03-28T07:25:29.384Z,88.40
2018-03-28T07:27:56.948Z,88.60
2018-03-28T07:30:24.506Z,88.80
2018-03-28T07:32:52.084Z,88.70
2018-03-28T07:35:19.650Z,89.10
2018-03-28T07:37:50.930Z,89.50
2018-03-28T07:40:19.247Z,90.50
2018-03-28T07:42:46.765Z,90.50
2018-03-28T07:45:15.069Z,89.80
2018-03-28T07:47:42.618Z,89.70
2018-03-28T07:50:10.200Z,90.00
2018-03-28T07:52:37.726Z,90.00
2018-03-28T07:55:06.102Z,89.90
2018-03-28T07:57:34.447Z,87.70
2018-03-28T08:00:01.997Z,87.70
2018-03-28T08:02:29.559Z,86.90
2018-03-28T08:04:57.143Z,86.50
2018-03-28T08:07:24.721Z,86.50
2018-03-28T08:09:53.042Z,88.80
2018-03-28T08:12:20.691Z,88.80
2018-03-28T08:14:48.336Z,89.40
2018-03-28T08:17:15.898Z,90.00
2018-03-28T08:19:43.462Z,90.10
2018-03-28T08:22:11.013Z,90.10
2018-03-28T08:24:38.709Z,89.70
2018-03-28T08:27:06.273Z,88.40
2018-03-28T08:29:33.858Z,88.80
2018-03-28T08:32:01.399Z,89.70
2018-03-28T08:34:28.958Z,89.50
2018-03-28T08:36:56.509Z,88.60
2018-03-28T08:39:24.161Z,87.50
2018-03-28T08:41:51.742Z,88.60
2018-03-28T08:44:19.357Z,88.40
2018-03-28T08:46:47.251Z,88.00
2018-03-28T08:49:14.907Z,87.40
2018-03-28T08:51:42.482Z,85.80
2018-03-28T08:54:10.034Z,84.20
2018-03-28T08:56:37.599Z,83.40
2018-03-28T08:59:05.165Z,83.20
2018-03-28T09:01:32.711Z,83.80
2018-03-28T09:04:00.377Z,84.20
2018-03-28T09:06:27.899Z,82.50
2018-03-28T09:08:56.212Z,83.00
2018-03-28T09:11:23.768Z,83.00
2018-03-28T09:13:51.406Z,83.40
2018-03-28T09:16:19.104Z,82.60
2018-03-28T09:18:46.746Z,82.20
2018-03-28T09:21:14.327Z,82.00
2018-03-28T09:23:41.936Z,81.90
2018-03-28T09:26:10.225Z,83.00
2018-03-28T09:28:37.823Z,82.90
2018-03-28T09:31:05.413Z,82.00
2018-03-28T09:33:32.969Z,82.90
2018-03-28T09:36:00.531Z,80.70
2018-03-28T09:38:28.095Z,81.00
2018-03-28T09:40:55.629Z,81.30
2018-03-28T09:43:23.182Z,81.50
2018-03-28T09:45:50.724Z,81.80
2018-03-28T09:48:18.247Z,82.30
2018-03-28T09:50:46.543Z,83.00
2018-03-28T09:53:14.222Z,82.80
2018-03-28T09:55:41.787Z,82.30
2018-03-28T09:58:09.296Z,81.70
2018-03-28T10:00:36.913Z,81.50
2018-03-28T10:03:10.276Z,80.40
2018-03-28T10:05:38.704Z,79.80
2018-03-28T10:08:06.287Z,78.40
2018-03-28T10:10:33.863Z,77.60
2018-03-28T10:13:02.151Z,76.50
2018-03-28T10:15:29.684Z,76.50
2018-03-28T10:17:57.275Z,76.10
2018-03-28T10:20:26.701Z,76.20
2018-03-28T10:22:54.244Z,75.30
2018-03-28T10:25:21.778Z,75.60
2018-03-28T10:27:50.086Z,73.00
2018-03-28T10:30:17.635Z,73.00
2018-03-28T10:32:45.196Z,72.50
2018-03-28T10:35:12.766Z,71.30
2018-03-28T10:37:41.151Z,70.90
2018-03-28T10:40:08.740Z,70.90
2018-03-28T10:42:37.821Z,67.50
2018-03-28T10:45:05.405Z,67.40
2018-03-28T10:47:33.780Z,69.70
2018-03-28T10:50:01.343Z,70.40
2018-03-28T10:52:28.912Z,67.70
2018-03-28T10:54:57.349Z,68.60
2018-03-28T10:57:24.915Z,68.40
2018-03-28T10:59:52.492Z,64.70
2018-03-28T11:02:20.126Z,59.20
2018-03-28T11:04:47.727Z,58.90
2018-03-28T11:07:15.298Z,60.80
2018-03-28T11:09:42.914Z,60.70
2018-03-28T11:12:10.480Z,58.90
2018-03-28T11:14:38.064Z,59.00
2018-03-28T11:17:05.610Z,58.80
2018-03-28T11:19:33.327Z,58.70
2018-03-28T11:22:00.924Z,59.50
2018-03-28T11:24:28.571Z,60.40
2018-03-28T11:26:56.196Z,60.90
2018-03-28T11:29:24.533Z,61.10
2018-03-28T11:31:52.098Z,61.10
2018-03-28T11:34:19.667Z,61.90
2018-03-28T11:36:47.287Z,62.40
2018-03-28T11:39:14.839Z,62.10
2018-03-28T11:41:42.383Z,61.90
2018-03-28T11:44:09.994Z,61.60
2018-03-28T11:46:37.546Z,61.80
2018-03-28T11:49:05.196Z,62.30
2018-03-28T11:51:32.774Z,63.00
2018-03-28T11:54:00.320Z,62.60
2018-03-28T11:56:27.883Z,63.10
2018-03-28T11:58:55.428Z,63.70
2018-03-28T12:01:23.005Z,62.50
2018-03-28T12:03:50.620Z,62.90
2018-03-28T12:06:18.188Z,63.30
2018-03-28T12:08:45.873Z,63.70
2018-03-28T12:11:13.497Z,64.60
2018-03-28T12:13:41.817Z,65.00
2018-03-28T12:16:09.602Z,64.90
2018-03-28T12:18:37.337Z,64.20
2018-03-28T12:21:04.888Z,64.20
2018-03-28T12:23:32.426Z,64.50
2018-03-28T12:26:00.761Z,65.50
2018-03-28T12:28:28.317Z,65.40
2018-03-28T12:30:55.874Z,65.60
2018-03-28T12:33:23.415Z,66.20
2018-03-28T12:35:50.918Z,66.60
2018-03-28T12:38:18.429Z,67.20
2018-03-28T12:40:45.955Z,67.10
2018-03-28T12:43:14.271Z,68.10
2018-03-28T12:45:41.767Z,68.00
2018-03-28T12:48:09.287Z,68.80
2018-03-28T12:50:36.784Z,69.10
2018-03-28T12:53:05.054Z,70.90
2018-03-28T12:55:32.674Z,70.90
2018-03-28T12:58:00.067Z,71.10
2018-03-28T13:00:27.591Z,71.10
2018-03-28T13:02:55.093Z,70.80
2018-03-28T13:05:22.617Z,70.10
2018-03-28T13:07:50.156Z,70.10
2018-03-28T13:10:18.403Z,69.60
2018-03-28T13:12:46.675Z,69.50
2018-03-28T13:15:14.173Z,69.10
2018-03-28T13:17:41.671Z,68.90
2018-03-28T13:20:09.170Z,69.30
2018-03-28T13:22:37.450Z,69.50
2018-03-28T13:25:04.963Z,69.40
2018-03-28T13:27:32.458Z,69.70
2018-03-28T13:30:00.719Z,69.50
2018-03-28T13:32:28.987Z,69.80
2018-03-28T13:34:56.483Z,69.70
2018-03-28T13:37:24.059Z,69.90
2018-03-28T13:39:51.571Z,70.10
2018-03-28T13:42:19.854Z,69.80
2018-03-28T13:44:48.147Z,71.10
2018-03-28T13:47:16.418Z,71.30
2018-03-28T13:49:44.704Z,71.50
2018-03-28T13:52:12.208Z,71.50
2018-03-28T13:54:39.699Z,71.70
2018-03-28T13:57:07.973Z,73.10
2018-03-28T13:59:35.488Z,73.00
2018-03-28T14:02:02.998Z,73.90
2018-03-28T14:04:31.255Z,74.30
2018-03-28T14:06:58.757Z,74.30
2018-03-28T14:09:26.251Z,74.60
2018-03-28T14:11:53.805Z,75.00
2018-03-28T14:14:21.299Z,74.80
2018-03-28T14:16:49.579Z,75.30
2018-03-28T14:19:17.847Z,75.50
2018-03-28T14:21:45.474Z,75.50
2018-03-28T14:24:12.970Z,75.40
2018-03-28T14:26:41.236Z,77.60
2018-03-28T14:29:08.736Z,76.70
2018-03-28T14:31:36.235Z,77.10
2018-03-28T14:34:03.735Z,78.30
2018-03-28T14:36:31.999Z,78.40
2018-03-28T14:38:59.497Z,78.40
2018-03-28T14:41:27.031Z,79.60
2018-03-28T14:43:55.291Z,80.10
2018-03-28T14:46:23.551Z,80.20
2018-03-28T14:48:51.052Z,80.20
2018-03-28T14:51:18.628Z,80.40
2018-03-28T14:53:46.135Z,80.70
2018-03-28T14:56:13.645Z,80.70
2018-03-28T14:58:41.136Z,80.80
2018-03-28T15:01:08.632Z,78.70
2018-03-28T15:03:36.906Z,79.90
2018-03-28T15:06:05.163Z,80.20
2018-03-28T15:08:32.662Z,80.20
2018-03-28T15:11:00.156Z,80.60
2018-03-28T15:13:27.647Z,79.60
2018-03-28T15:15:55.935Z,78.40
2018-03-28T15:18:24.198Z,78.90
2018-03-28T15:20:52.491Z,79.20
2018-03-28T15:23:20.771Z,78.60
2018-03-28T15:25:49.027Z,78.20
2018-03-28T15:28:16.524Z,78.20
2018-03-28T15:30:44.015Z,78.60
2018-03-28T15:33:11.525Z,78.50
2018-03-28T15:35:39.039Z,78.00
2018-03-28T15:38:06.535Z,77.90
2018-03-28T15:40:34.795Z,78.40
2018-03-28T15:43:02.314Z,78.60
2018-03-28T15:45:29.815Z,76.20
2018-03-28T15:47:58.099Z,73.10
2018-03-28T15:50:26.392Z,73.10
2018-03-28T15:52:53.891Z,73.10
2018-03-28T15:55:21.425Z,73.10
2018-03-28T15:57:48.939Z,73.40
2018-03-28T16:00:17.223Z,74.70
2018-03-28T16:02:45.510Z,74.10
2018-03-28T16:05:13.014Z,74.10
2018-03-28T16:07:40.526Z,74.00
2018-03-28T16:10:08.799Z,74.10
2018-03-28T16:12:36.324Z,74.10
2018-03-28T16:15:03.908Z,74.30
2018-03-28T16:17:31.363Z,74.40
2018-03-28T16:19:59.636Z,75.60
2018-03-28T16:22:27.914Z,76.00
2018-03-28T16:24:55.449Z,75.20
2018-03-28T16:27:23.041Z,75.60
2018-03-28T16:29:51.341Z,75.70
2018-03-28T16:32:19.608Z,76.00
2018-03-28T16:34:47.867Z,75.90
2018-03-28T16:37:16.143Z,76.00
2018-03-28T16:39:44.411Z,76.50
2018-03-28T16:42:11.923Z,76.40
2018-03-28T16:44:39.432Z,76.80
2018-03-28T16:47:07.691Z,78.10
2018-03-28T16:49:35.183Z,77.20
2018-03-28T16:52:03.463Z,77.60
2018-03-28T16:54:31.739Z,77.70
2018-03-28T16:56:59.999Z,78.20
2018-03-28T16:59:27.507Z,78.20
2018-03-28T17:01:55.007Z,79.70
2018-03-28T17:04:22.509Z,80.30
2018-03-28T17:06:50.007Z,80.20
2018-03-28T17:09:17.499Z,80.60
2018-03-28T17:11:45.754Z,81.40
2018-03-28T17:14:13.264Z,81.40
2018-03-28T17:16:40.770Z,81.60
2018-03-28T17:19:08.259Z,81.70
2018-03-28T17:21:36.530Z,81.90
2018-03-28T17:24:04.787Z,81.90
2018-03-28T17:26:32.293Z,81.90
2018-03-28T17:28:59.800Z,81.90
2018-03-28T17:31:27.289Z,81.80
2018-03-28T17:33:55.538Z,81.90
2018-03-28T17:36:23.146Z,81.80
2018-03-28T17:38:50.647Z,82.10
2018-03-28T17:41:18.903Z,82.40
2018-03-28T17:43:46.398Z,82.40
2018-03-28T17:46:14.657Z,82.50
2018-03-28T17:48:42.171Z,82.40
2018-03-28T17:51:09.698Z,82.50
2018-03-28T17:53:37.956Z,83.40
2018-03-28T17:56:06.216Z,82.40
2018-03-28T17:58:33.856Z,82.50
2018-03-28T18:01:01.380Z,82.40
2018-03-28T18:03:29.635Z,82.50
2018-03-28T18:05:57.146Z,82.50
2018-03-28T18:08:24.648Z,82.90
2018-03-28T18:10:52.147Z,82.40
2018-03-28T18:13:19.660Z,82.40
2018-03-28T18:15:47.175Z,82.50
2018-03-28T18:18:14.835Z,82.50
2018-03-28T18:20:42.359Z,82.70
2018-03-28T18:23:10.619Z,82.90
2018-03-28T18:25:38.126Z,82.80
2018-03-28T18:28:05.685Z,83.00
2018-03-28T18:30:33.188Z,82.70
2018-03-28T18:33:00.698Z,82.30
2018-03-28T18:35:28.187Z,82.10
2018-03-28T18:37:55.680Z,82.20
2018-03-28T18:40:23.967Z,82.00
2018-03-28T18:42:52.235Z,82.00
2018-03-28T18:45:20.495Z,81.80
2018-03-28T18:47:48.011Z,81.80
2018-03-28T18:50:15.516Z,81.60
2018-03-28T18:52:43.023Z,81.50
2018-03-28T18:55:10.520Z,81.60
2018-03-28T18:57:38.023Z,81.50
2018-03-28T19:00:05.600Z,81.90
2018-03-28T19:02:33.095Z,82.00
2018-03-28T19:05:00.607Z,82.10
2018-03-28T19:07:28.155Z,82.20
2018-03-28T19:09:56.460Z,82.30
2018-03-28T19:12:24.730Z,82.40
2018-03-28T19:14:52.240Z,82.40
2018-03-28T19:17:19.743Z,82.70
2018-03-28T19:19:47.254Z,83.00
2018-03-28T19:22:14.744Z,82.60
2018-03-28T19:24:42.235Z,82.20
2018-03-28T19:27:09.731Z,82.10
2018-03-28T19:29:38.027Z,81.20
2018-03-28T19:32:06.285Z,81.10
2018-03-28T19:34:33.789Z,81.00
2018-03-28T19:37:01.303Z,81.20
2018-03-28T19:39:28.795Z,81.50
2018-03-28T19:41:56.361Z,81.30
2018-03-28T19:44:23.838Z,81.40
2018-03-28T19:46:51.351Z,81.60
2018-03-28T19:49:19.639Z,82.10
2018-03-28T19:51:47.919Z,82.10
2018-03-28T19:54:15.470Z,82.10
2018-03-28T19:56:42.990Z,82.00
2018-03-28T19:59:10.487Z,82.00
2018-03-28T20:01:38.754Z,81.90
2018-03-28T20:04:07.019Z,81.90
2018-03-28T20:06:35.310Z,81.50
2018-03-28T20:09:03.579Z,82.10
2018-03-28T20:11:31.844Z,82.20
2018-03-28T20:13:59.463Z,82.20
2018-03-28T20:16:26.975Z,82.20
2018-03-28T20:18:55.243Z,82.40
2018-03-28T20:21:22.748Z,82.40
2018-03-28T20:23:50.251Z,82.50
2018-03-28T20:26:17.759Z,82.50
2018-03-28T20:28:45.329Z,82.40
2018-03-28T20:31:12.835Z,82.50
2018-03-28T20:33:40.340Z,82.60
2018-03-28T20:36:07.827Z,82.70
2018-03-28T20:38:35.323Z,82.70
2018-03-28T20:41:03.583Z,82.50
2018-03-28T20:43:31.079Z,82.50
2018-03-28T20:45:58.582Z,82.40
2018-03-28T20:48:26.081Z,82.60
2018-03-28T20:50:54.360Z,82.90
2018-03-28T20:53:22.623Z,83.00
2018-03-28T20:55:50.899Z,83.10
2018-03-28T20:58:19.171Z,83.20
2018-03-28T21:00:46.673Z,83.10
2018-03-28T21:03:14.186Z,83.20
2018-03-28T21:05:42.420Z,83.20
2018-03-28T21:08:09.915Z,83.40
2018-03-28T21:10:37.415Z,83.60
2018-03-28T21:13:04.910Z,83.70
2018-03-28T21:15:32.407Z,84.00
2018-03-28T21:18:00.679Z,85.00
2018-03-28T21:20:28.952Z,85.40
2018-03-28T21:22:57.370Z,85.70
2018-03-28T21:25:24.870Z,85.60
2018-03-28T21:27:52.487Z,86.10
2018-03-28T21:30:19.982Z,86.60
2018-03-28T21:32:47.475Z,86.30
2018-03-28T21:35:15.730Z,85.90
2018-03-28T21:37:43.248Z,85.90
2018-03-28T21:40:10.744Z,85.70
2018-03-28T21:42:39.748Z,85.30
2018-03-28T21:45:07.248Z,85.20
2018-03-28T21:47:34.767Z,85.90
2018-03-28T21:50:02.255Z,85.10
2018-03-28T21:52:29.747Z,85.70
2018-03-28T21:54:57.249Z,85.20
2018-03-28T21:57:25.545Z,85.60
2018-03-28T21:59:53.806Z,85.80
2018-03-28T22:02:22.071Z,86.00
2018-03-28T22:04:49.595Z,86.00
2018-03-28T22:07:17.087Z,86.30
2018-03-28T22:09:45.377Z,86.70
2018-03-28T22:12:13.639Z,86.80
2018-03-28T22:14:41.153Z,86.80
2018-03-28T22:17:08.648Z,87.10
2018-03-28T22:19:36.157Z,87.30
2018-03-28T22:22:03.655Z,87.40
2018-03-28T22:24:31.159Z,87.50
2018-03-28T22:26:58.667Z,87.40
2018-03-28T22:29:26.179Z,87.60
2018-03-28T22:31:53.687Z,87.90
2018-03-28T22:34:21.195Z,88.00
2018-03-28T22:36:48.699Z,88.40
2018-03-28T22:39:16.196Z,88.60
2018-03-28T22:41:44.475Z,88.80
2018-03-28T22:44:12.740Z,89.20
2018-03-28T22:46:41.049Z,89.40
2018-03-28T22:49:08.557Z,89.30
2018-03-28T22:51:36.052Z,89.60
2018-03-28T22:54:04.316Z,89.50
2018-03-28T22:56:32.600Z,89.60
2018-03-28T22:59:00.151Z,89.60
2018-03-28T23:01:28.406Z,90.00
2018-03-28T23:03:55.924Z,90.00
2018-03-28T23:06:23.435Z,90.10
2018-03-28T23:08:51.699Z,90.20
2018-03-28T23:11:19.196Z,90.20
2018-03-28T23:13:46.695Z,90.30
2018-03-28T23:16:14.196Z,90.30
2018-03-28T23:18:42.483Z,90.30
2018-03-28T23:21:10.035Z,90.30
2018-03-28T23:23:38.299Z,90.20
2018-03-28T23:26:06.578Z,90.10
2018-03-28T23:28:34.846Z,90.10
2018-03-28T23:31:03.858Z,90.00
2018-03-28T23:33:32.131Z,90.00
2018-03-28T23:36:00.395Z,90.00
2018-03-28T23:38:27.894Z,90.00
2018-03-28T23:40:55.391Z,89.90
2018-03-28T23:43:22.879Z,90.00
2018-03-28T23:45:51.139Z,90.00
2018-03-28T23:48:18.647Z,89.90
2018-03-28T23:50:46.139Z,90.00
2018-03-28T23:53:13.635Z,90.00
2018-03-28T23:55:41.899Z,90.00
2018-03-28T23:58:09.403Z,90.00
